createdAt,value
2022-10-12T00:01:10.027Z,15.10
2022-10-12T00:03:38.756Z,15.10
2022-10-12T00:06:09.317Z,15.20
2022-10-12T00:08:38.987Z,15.20
2022-10-12T00:11:09.122Z,15.20
2022-10-12T00:13:36.684Z,15.20
2022-10-12T00:16:07.919Z,15.20
2022-10-12T00:18:35.853Z,15.20
2022-10-12T00:21:14.161Z,15.20
2022-10-12T00:23:44.059Z,15.30
2022-10-12T00:26:23.401Z,15.30
2022-10-12T00:29:00.283Z,15.20
2022-10-12T00:31:30.393Z,15.20
2022-10-12T00:34:02.222Z,15.20
2022-10-12T00:36:34.532Z,15.20
2022-10-12T00:39:05.407Z,15.20
2022-10-12T00:41:41.210Z,15.20
2022-10-12T00:44:34.915Z,15.30
2022-10-12T00:47:17.620Z,15.30
2022-10-12T00:49:57.605Z,15.30
2022-10-12T00:52:34.629Z,15.20
2022-10-12T00:55:03.086Z,15.20
2022-10-12T00:57:30.385Z,15.20
2022-10-12T01:00:04.326Z,15.10
2022-10-12T01:02:34.373Z,15.00
2022-10-12T01:05:03.017Z,15.00
2022-10-12T01:07:30.490Z,14.90
2022-10-12T01:09:57.936Z,14.90
2022-10-12T01:12:27.093Z,14.80
2022-10-12T01:14:55.613Z,14.70
2022-10-12T01:17:28.815Z,14.70
2022-10-12T01:20:40.295Z,14.80
2022-10-12T01:23:45.194Z,14.70
2022-10-12T01:27:03.183Z,14.60
2022-10-12T01:30:07.308Z,14.60
2022-10-12T01:32:39.388Z,14.60
2022-10-12T01:36:04.564Z,14.70
2022-10-12T01:39:05.209Z,14.70
2022-10-12T01:41:37.023Z,14.70
2022-10-12T01:44:04.822Z,14.80
2022-10-12T01:46:32.040Z,14.80
2022-10-12T01:49:02.176Z,14.80
2022-10-12T01:52:07.671Z,14.80
2022-10-12T01:55:10.159Z,14.80
2022-10-12T01:58:35.301Z,14.80
2022-10-12T02:01:17.615Z,14.80
2022-10-12T02:04:10.855Z,14.80
2022-10-12T02:06:47.321Z,14.80
2022-10-12T02:09:25.795Z,14.80
2022-10-12T02:11:57.628Z,14.80
2022-10-12T02:14:35.208Z,14.70
2022-10-12T02:17:09.715Z,14.70
2022-10-12T02:19:44.890Z,14.70
2022-10-12T02:22:15.072Z,14.80
2022-10-12T02:24:47.560Z,14.80
2022-10-12T02:27:18.324Z,14.80
2022-10-12T02:29:48.021Z,14.70
2022-10-12T02:32:34.299Z,14.70
2022-10-12T02:35:09.293Z,14.70
2022-10-12T02:37:39.578Z,14.70
2022-10-12T02:40:14.912Z,14.70
2022-10-12T02:43:11.070Z,14.70
2022-10-12T02:45:43.989Z,14.70
2022-10-12T02:48:17.736Z,14.70
2022-10-12T02:50:48.744Z,14.60
2022-10-12T02:53:17.339Z,14.50
2022-10-12T02:55:59.419Z,14.50
2022-10-12T02:58:26.709Z,14.40
2022-10-12T03:00:54.015Z,14.30
2022-10-12T03:03:21.451Z,14.20
2022-10-12T03:05:48.755Z,14.10
2022-10-12T03:08:16.003Z,14.20
2022-10-12T03:10:43.426Z,14.40
2022-10-12T03:13:10.773Z,14.50
2022-10-12T03:15:38.243Z,14.50
2022-10-12T03:18:05.626Z,14.60
2022-10-12T03:20:33.020Z,14.70
2022-10-12T03:23:00.342Z,14.70
2022-10-12T03:25:27.553Z,14.70
2022-10-12T03:27:54.838Z,14.70
2022-10-12T03:30:22.257Z,14.70
2022-10-12T03:32:49.597Z,14.70
2022-10-12T03:35:17.726Z,14.60
2022-10-12T03:37:45.061Z,14.60
2022-10-12T03:40:13.624Z,14.60
2022-10-12T03:42:41.056Z,14.60
2022-10-12T03:45:09.381Z,14.60
2022-10-12T03:47:38.221Z,14.50
2022-10-12T03:50:06.406Z,14.50
2022-10-12T03:52:33.763Z,14.60
2022-10-12T03:55:01.038Z,14.60
2022-10-12T03:57:28.428Z,14.60
2022-10-12T03:59:55.726Z,14.50
2022-10-12T04:02:23.065Z,14.50
2022-10-12T04:04:50.416Z,14.60
2022-10-12T04:07:17.789Z,14.60
2022-10-12T04:09:45.192Z,14.50
2022-10-12T04:12:12.641Z,14.50
2022-10-12T04:14:40.476Z,14.50
2022-10-12T04:17:07.953Z,14.50
2022-10-12T04:19:35.388Z,14.50
2022-10-12T04:22:02.668Z,14.40
2022-10-12T04:24:30.096Z,14.40
2022-10-12T04:26:57.427Z,14.40
2022-10-12T04:29:24.639Z,14.30
2022-10-12T04:31:52.057Z,14.30
2022-10-12T04:34:20.242Z,14.20
2022-10-12T04:36:48.083Z,14.20
2022-10-12T04:39:17.419Z,14.20
2022-10-12T04:41:44.724Z,14.20
2022-10-12T04:44:12.015Z,14.10
2022-10-12T04:46:39.240Z,14.10
2022-10-12T04:49:06.595Z,14.10
2022-10-12T04:51:33.931Z,14.10
2022-10-12T04:54:01.160Z,14.10
2022-10-12T04:56:28.465Z,14.10
2022-10-12T04:58:55.853Z,14.10
2022-10-12T05:01:23.309Z,14.10
2022-10-12T05:03:50.634Z,14.10
2022-10-12T05:06:17.942Z,14.00
2022-10-12T05:08:45.218Z,14.00
2022-10-12T05:11:12.606Z,14.00
2022-10-12T05:13:39.889Z,13.80
2022-10-12T05:16:07.461Z,13.50
2022-10-12T05:18:34.801Z,13.30
2022-10-12T05:21:02.117Z,13.30
2022-10-12T05:23:29.545Z,13.30
2022-10-12T05:25:57.132Z,13.40
2022-10-12T05:28:24.863Z,13.50
2022-10-12T05:30:53.442Z,13.60
2022-10-12T05:33:20.738Z,13.70
2022-10-12T05:35:53.353Z,13.80
2022-10-12T05:38:23.838Z,13.80
2022-10-12T05:40:51.104Z,14.00
2022-10-12T05:43:18.479Z,14.10
2022-10-12T05:45:45.762Z,14.20
2022-10-12T05:48:13.025Z,14.30
2022-10-12T05:50:40.374Z,14.40
2022-10-12T05:53:07.592Z,14.50
2022-10-12T05:55:34.902Z,14.60
2022-10-12T05:58:02.219Z,14.70
2022-10-12T06:00:29.571Z,14.70
2022-10-12T06:02:56.955Z,14.80
2022-10-12T06:05:25.179Z,14.80
2022-10-12T06:07:52.448Z,14.70
2022-10-12T06:10:19.903Z,14.80
2022-10-12T06:12:47.358Z,14.90
2022-10-12T06:15:14.663Z,15.10
2022-10-12T06:17:41.910Z,15.30
2022-10-12T06:20:10.331Z,15.30
2022-10-12T06:22:37.728Z,15.50
2022-10-12T06:25:05.933Z,15.50
2022-10-12T06:27:33.365Z,15.60
2022-10-12T06:30:00.695Z,15.70
2022-10-12T06:32:27.971Z,15.80
2022-10-12T06:34:55.592Z,15.80
2022-10-12T06:37:48.107Z,15.90
2022-10-12T06:40:11.005Z,15.90
2022-10-12T06:42:38.476Z,15.90
2022-10-12T06:45:06.651Z,15.90
2022-10-12T06:47:34.572Z,15.90
2022-10-12T06:50:01.892Z,15.90
2022-10-12T06:52:29.429Z,16.00
2022-10-12T06:54:56.816Z,16.00
2022-10-12T06:57:24.439Z,16.10
2022-10-12T06:59:51.790Z,16.20
2022-10-12T07:02:19.088Z,16.20
2022-10-12T07:04:53.886Z,16.30
2022-10-12T07:07:21.161Z,16.30
2022-10-12T07:09:49.010Z,16.30
2022-10-12T07:12:16.295Z,16.50
2022-10-12T07:14:43.614Z,16.60
2022-10-12T07:17:10.886Z,16.70
2022-10-12T07:19:38.299Z,16.80
2022-10-12T07:22:05.756Z,17.00
2022-10-12T07:24:36.545Z,17.20
2022-10-12T07:27:07.958Z,17.30
2022-10-12T07:29:38.076Z,17.40
2022-10-12T07:32:12.438Z,17.40
2022-10-12T07:34:39.763Z,17.40
2022-10-12T07:37:07.221Z,17.50
2022-10-12T07:39:34.631Z,17.50
2022-10-12T07:42:09.271Z,17.60
2022-10-12T07:44:38.921Z,17.50
2022-10-12T07:47:06.283Z,17.30
2022-10-12T07:49:33.623Z,17.10
2022-10-12T07:52:00.856Z,17.10
2022-10-12T07:54:30.308Z,17.00
2022-10-12T07:56:57.636Z,17.10
2022-10-12T07:59:25.142Z,17.10
2022-10-12T08:01:53.153Z,17.10
2022-10-12T08:04:20.575Z,17.20
2022-10-12T08:06:47.841Z,17.20
2022-10-12T08:09:15.346Z,17.20
2022-10-12T08:11:43.078Z,17.10
2022-10-12T08:14:16.494Z,17.10
2022-10-12T08:16:45.322Z,17.10
2022-10-12T08:19:13.311Z,17.00
2022-10-12T08:21:42.620Z,17.00
2022-10-12T08:24:11.687Z,17.00
2022-10-12T08:26:39.703Z,17.00
2022-10-12T08:29:08.436Z,17.10
2022-10-12T08:31:37.652Z,17.20
2022-10-12T08:34:05.553Z,17.30
2022-10-12T08:36:33.274Z,17.50
2022-10-12T08:39:00.621Z,17.70
2022-10-12T08:42:00.706Z,17.90
2022-10-12T08:45:02.938Z,18.10
2022-10-12T08:47:51.649Z,18.30
2022-10-12T08:50:34.106Z,18.40
2022-10-12T08:53:30.340Z,18.40
2022-10-12T08:55:59.170Z,18.50
2022-10-12T08:58:39.119Z,18.50
2022-10-12T09:01:26.143Z,18.50
2022-10-12T09:04:21.520Z,18.60
2022-10-12T09:07:10.842Z,18.60
2022-10-12T09:09:57.161Z,18.60
2022-10-12T09:12:37.644Z,18.60
2022-10-12T09:15:18.021Z,18.60
2022-10-12T09:17:58.254Z,18.60
2022-10-12T09:20:59.196Z,18.60
2022-10-12T09:23:32.004Z,18.60
2022-10-12T09:26:16.741Z,18.60
2022-10-12T09:28:58.427Z,18.60
2022-10-12T09:32:02.766Z,18.50
2022-10-12T09:34:30.509Z,18.50
2022-10-12T09:36:58.215Z,18.40
2022-10-12T09:39:35.577Z,18.40
2022-10-12T09:42:03.319Z,18.30
2022-10-12T09:44:52.780Z,18.20
2022-10-12T09:47:31.549Z,18.20
2022-10-12T09:50:07.271Z,18.10
2022-10-12T09:52:44.804Z,18.10
2022-10-12T09:58:02.854Z,18.10
2022-10-12T10:00:34.565Z,18.10
2022-10-12T10:03:03.151Z,18.20
2022-10-12T10:05:36.230Z,18.30
2022-10-12T10:08:23.611Z,18.40
2022-10-12T10:11:01.700Z,18.40
2022-10-12T10:13:32.558Z,18.50
2022-10-12T10:16:11.500Z,18.60
2022-10-12T10:18:49.436Z,18.80
2022-10-12T10:21:43.340Z,19.00
2022-10-12T10:24:27.556Z,19.10
2022-10-12T10:27:00.277Z,19.20
2022-10-12T10:29:41.824Z,19.40
2022-10-12T10:32:27.018Z,19.40
2022-10-12T10:35:21.451Z,19.40
2022-10-12T10:37:55.778Z,19.40
2022-10-12T10:40:29.223Z,19.40
2022-10-12T10:43:18.406Z,19.40
2022-10-12T10:45:54.885Z,19.30
2022-10-12T10:48:56.592Z,19.40
2022-10-12T10:52:00.217Z,19.50
2022-10-12T10:54:41.093Z,19.50
2022-10-12T10:57:19.248Z,19.60
2022-10-12T11:00:09.289Z,19.80
2022-10-12T11:03:24.148Z,19.90
2022-10-12T11:06:35.331Z,19.90
2022-10-12T11:09:13.180Z,20.00
2022-10-12T11:11:44.406Z,20.10
2022-10-12T11:14:19.692Z,20.20
2022-10-12T11:17:08.553Z,20.30
2022-10-12T11:19:49.467Z,20.40
2022-10-12T11:22:29.238Z,20.50
2022-10-12T11:25:26.203Z,20.70
2022-10-12T11:27:54.019Z,20.80
2022-10-12T11:30:26.685Z,21.00
2022-10-12T11:33:07.518Z,21.00
2022-10-12T11:35:37.325Z,21.00
2022-10-12T11:38:21.063Z,21.00
2022-10-12T11:41:09.442Z,21.00
2022-10-12T11:43:54.124Z,21.00
2022-10-12T11:46:38.416Z,20.90
2022-10-12T11:49:28.212Z,20.90
2022-10-12T11:52:01.324Z,20.70
2022-10-12T11:54:52.936Z,20.60
2022-10-12T11:57:37.390Z,20.70
2022-10-12T12:00:24.079Z,20.60
2022-10-12T12:03:15.450Z,20.60
2022-10-12T12:05:44.232Z,20.50
2022-10-12T12:08:41.737Z,20.50
2022-10-12T12:11:30.809Z,20.50
2022-10-12T12:14:28.764Z,20.40
2022-10-12T12:17:21.978Z,20.30
2022-10-12T12:20:46.751Z,20.20
2022-10-12T12:23:40.969Z,20.20
2022-10-12T12:26:16.113Z,20.30
2022-10-12T12:28:51.594Z,20.30
2022-10-12T12:31:24.872Z,20.30
2022-10-12T12:34:14.727Z,20.20
2022-10-12T12:36:52.258Z,20.30
2022-10-12T12:40:10.660Z,20.20
2022-10-12T12:42:38.190Z,20.10
2022-10-12T12:45:33.688Z,20.00
2022-10-12T12:48:11.678Z,19.90
2022-10-12T12:50:41.748Z,19.80
2022-10-12T12:53:22.083Z,19.80
2022-10-12T12:56:12.985Z,19.80
2022-10-12T12:58:55.581Z,19.80
2022-10-12T13:01:22.852Z,19.70
2022-10-12T13:04:23.103Z,19.80
2022-10-12T13:07:17.595Z,19.80
2022-10-12T13:10:08.243Z,19.90
2022-10-12T13:13:09.426Z,19.80
2022-10-12T13:16:00.569Z,19.90
2022-10-12T13:19:00.760Z,19.90
2022-10-12T13:21:39.157Z,20.00
2022-10-12T13:24:20.667Z,20.00
2022-10-12T13:26:54.403Z,20.00
2022-10-12T13:29:59.448Z,19.90
2022-10-12T13:33:07.791Z,19.90
2022-10-12T13:36:00.115Z,20.00
2022-10-12T13:38:30.270Z,20.00
2022-10-12T13:41:11.468Z,19.90
2022-10-12T13:44:06.732Z,19.80
2022-10-12T13:46:44.712Z,19.80
2022-10-12T13:49:24.744Z,19.70
2022-10-12T13:52:16.315Z,19.60
2022-10-12T13:54:47.796Z,19.60
2022-10-12T13:57:33.164Z,19.60
2022-10-12T14:00:16.720Z,19.60
2022-10-12T14:03:05.815Z,19.50
2022-10-12T14:05:34.212Z,19.50
2022-10-12T14:08:26.233Z,19.40
2022-10-12T14:10:57.797Z,19.50
2022-10-12T14:13:31.956Z,19.60
2022-10-12T14:16:05.270Z,19.60
2022-10-12T14:18:45.000Z,19.60
2022-10-12T14:21:25.914Z,19.60
2022-10-12T14:24:06.968Z,19.60
2022-10-12T14:26:42.741Z,19.60
2022-10-12T14:29:45.596Z,19.60
2022-10-12T14:32:13.726Z,19.60
2022-10-12T14:35:03.976Z,19.70
2022-10-12T14:37:31.828Z,19.70
2022-10-12T14:40:28.628Z,19.60
2022-10-12T14:43:13.826Z,19.60
2022-10-12T14:45:41.416Z,19.60
2022-10-12T14:48:20.874Z,19.50
2022-10-12T14:50:48.369Z,19.50
2022-10-12T14:53:16.610Z,19.50
2022-10-12T14:55:44.657Z,19.50
2022-10-12T14:58:19.728Z,19.40
2022-10-12T15:00:47.298Z,19.40
2022-10-12T15:03:18.237Z,19.50
2022-10-12T15:05:45.636Z,19.40
2022-10-12T15:08:12.997Z,19.30
2022-10-12T15:10:40.426Z,19.30
2022-10-12T15:13:07.736Z,19.20
2022-10-12T15:15:47.142Z,19.10
2022-10-12T15:18:14.910Z,19.10
2022-10-12T15:20:48.287Z,19.10
2022-10-12T15:23:16.845Z,19.00
2022-10-12T15:25:55.098Z,19.00
2022-10-12T15:28:29.959Z,19.00
2022-10-12T15:31:17.535Z,18.90
2022-10-12T15:33:46.796Z,18.90
2022-10-12T15:36:14.118Z,18.80
2022-10-12T15:38:41.412Z,18.80
2022-10-12T15:41:21.091Z,18.80
2022-10-12T15:43:48.473Z,18.70
2022-10-12T15:46:16.652Z,18.60
2022-10-12T15:48:46.369Z,18.60
2022-10-12T15:51:22.834Z,18.50
2022-10-12T15:53:53.484Z,18.40
2022-10-12T15:56:22.058Z,18.40
2022-10-12T15:58:49.564Z,18.30
2022-10-12T16:01:20.277Z,18.20
2022-10-12T16:03:49.318Z,18.10
2022-10-12T16:06:17.214Z,18.00
2022-10-12T16:08:44.588Z,17.90
2022-10-12T16:11:16.103Z,17.90
2022-10-12T16:13:49.998Z,17.80
2022-10-12T16:16:21.371Z,17.80
2022-10-12T16:18:48.954Z,17.70
2022-10-12T16:21:16.767Z,17.70
2022-10-12T16:23:44.210Z,17.80
2022-10-12T16:26:17.584Z,18.00
2022-10-12T16:28:45.452Z,18.20
2022-10-12T16:31:17.922Z,18.40
2022-10-12T16:33:45.990Z,18.50
2022-10-12T16:36:15.937Z,18.60
2022-10-12T16:38:44.523Z,18.70
2022-10-12T16:41:17.314Z,18.80
2022-10-12T16:43:45.089Z,18.90
2022-10-12T16:46:12.563Z,18.90
2022-10-12T16:48:39.990Z,18.90
2022-10-12T16:51:13.368Z,18.90
2022-10-12T16:53:42.491Z,18.90
2022-10-12T16:56:10.086Z,18.90
2022-10-12T16:58:37.622Z,18.90
2022-10-12T17:01:13.732Z,18.90
2022-10-12T17:03:41.583Z,18.90
2022-10-12T17:06:10.639Z,18.90
2022-10-12T17:08:39.501Z,18.80
2022-10-12T17:11:13.646Z,18.80
2022-10-12T17:13:46.591Z,18.80
2022-10-12T17:16:37.452Z,18.80
2022-10-12T17:19:05.252Z,18.70
2022-10-12T17:21:32.958Z,18.70
2022-10-12T17:24:01.538Z,18.70
2022-10-12T17:26:29.337Z,18.70
2022-10-12T17:28:56.756Z,18.60
2022-10-12T17:31:24.231Z,18.60
2022-10-12T17:33:51.677Z,18.60
2022-10-12T17:36:19.014Z,18.50
2022-10-12T17:38:46.511Z,18.50
2022-10-12T17:41:13.856Z,18.50
2022-10-12T17:43:41.350Z,18.50
2022-10-12T17:46:08.635Z,18.40
2022-10-12T17:48:36.063Z,18.40
2022-10-12T17:51:09.787Z,18.40
2022-10-12T17:53:43.221Z,18.40
2022-10-12T17:56:14.431Z,18.40
2022-10-12T17:58:42.806Z,18.40
2022-10-12T18:01:16.449Z,18.40
2022-10-12T18:03:46.625Z,18.30
2022-10-12T18:06:18.777Z,18.10
2022-10-12T18:08:46.517Z,17.90
2022-10-12T18:11:15.499Z,17.60
2022-10-12T18:13:48.295Z,17.50
2022-10-12T18:16:19.239Z,17.40
2022-10-12T18:18:50.789Z,17.20
2022-10-12T18:21:20.966Z,17.10
2022-10-12T18:23:49.684Z,17.00
2022-10-12T18:26:22.124Z,17.00
2022-10-12T18:29:01.095Z,16.90
2022-10-12T18:31:30.609Z,17.00
2022-10-12T18:33:59.301Z,17.20
2022-10-12T18:36:27.787Z,17.40
2022-10-12T18:38:56.978Z,17.50
2022-10-12T18:41:27.002Z,17.60
2022-10-12T18:43:59.760Z,17.70
2022-10-12T18:46:32.361Z,17.80
2022-10-12T18:49:05.045Z,17.80
2022-10-12T18:51:42.415Z,17.90
2022-10-12T18:54:13.958Z,17.90
2022-10-12T18:56:41.953Z,17.90
2022-10-12T18:59:12.228Z,17.90
2022-10-12T19:01:39.696Z,17.90
2022-10-12T19:04:07.399Z,17.90
2022-10-12T19:06:38.601Z,17.90
2022-10-12T19:09:06.410Z,17.90
2022-10-12T19:11:34.858Z,17.90
2022-10-12T19:14:07.058Z,17.90
2022-10-12T19:16:35.955Z,17.90
2022-10-12T19:19:07.575Z,17.90
2022-10-12T19:21:35.637Z,17.70
2022-10-12T19:24:09.004Z,17.50
2022-10-12T19:26:37.281Z,17.30
2022-10-12T19:29:05.809Z,17.20
2022-10-12T19:31:36.051Z,17.10
2022-10-12T19:34:08.115Z,17.10
2022-10-12T19:36:37.248Z,16.90
2022-10-12T19:39:10.096Z,16.80
2022-10-12T19:41:37.663Z,16.80
2022-10-12T19:44:06.935Z,16.80
2022-10-12T19:46:35.049Z,16.70
2022-10-12T19:49:02.662Z,16.70
2022-10-12T19:51:32.050Z,16.60
2022-10-12T19:54:04.193Z,16.60
2022-10-12T19:56:32.378Z,16.60
2022-10-12T19:59:06.584Z,16.60
2022-10-12T20:01:37.952Z,16.60
2022-10-12T20:04:10.229Z,16.60
2022-10-12T20:06:38.343Z,16.60
2022-10-12T20:09:07.574Z,16.60
2022-10-12T20:11:35.556Z,16.50
2022-10-12T20:14:03.410Z,16.50
2022-10-12T20:16:34.876Z,16.40
2022-10-12T20:19:04.759Z,16.50
2022-10-12T20:21:32.157Z,16.40
2022-10-12T20:23:59.602Z,16.40
2022-10-12T20:26:27.220Z,16.40
2022-10-12T20:28:55.632Z,16.30
2022-10-12T20:31:25.599Z,16.30
2022-10-12T20:33:56.292Z,16.20
2022-10-12T20:36:32.519Z,16.20
2022-10-12T20:39:00.680Z,16.10
2022-10-12T20:41:28.655Z,16.00
2022-10-12T20:43:58.297Z,16.00
2022-10-12T20:46:26.769Z,15.90
2022-10-12T20:48:59.100Z,15.80
2022-10-12T20:51:36.128Z,15.70
2022-10-12T20:54:05.740Z,15.60
2022-10-12T20:56:34.017Z,15.40
2022-10-12T20:59:03.268Z,15.40
2022-10-12T21:01:31.691Z,15.30
2022-10-12T21:03:59.057Z,15.30
2022-10-12T21:06:26.928Z,15.20
2022-10-12T21:08:57.400Z,15.10
2022-10-12T21:11:25.365Z,15.10
2022-10-12T21:13:53.173Z,15.00
2022-10-12T21:16:20.745Z,15.00
2022-10-12T21:18:48.314Z,14.90
2022-10-12T21:21:17.810Z,14.80
2022-10-12T21:23:51.714Z,14.70
2022-10-12T21:26:20.903Z,14.70
2022-10-12T21:28:48.131Z,14.60
2022-10-12T21:31:16.016Z,14.60
2022-10-12T21:33:43.903Z,14.60
2022-10-12T21:36:16.320Z,14.50
2022-10-12T21:38:43.920Z,14.50
2022-10-12T21:41:13.973Z,14.40
2022-10-12T21:43:42.283Z,14.40
2022-10-12T21:46:15.176Z,14.40
2022-10-12T21:48:42.639Z,14.40
2022-10-12T21:51:10.332Z,14.30
2022-10-12T21:53:38.285Z,14.30
2022-10-12T21:56:12.896Z,14.30
2022-10-12T21:58:40.298Z,14.30
2022-10-12T22:01:13.579Z,14.30
2022-10-12T22:03:41.951Z,14.30
2022-10-12T22:06:17.719Z,14.30
2022-10-12T22:08:49.694Z,14.30
2022-10-12T22:11:17.467Z,14.40
2022-10-12T22:13:44.868Z,14.50
2022-10-12T22:16:15.571Z,14.50
2022-10-12T22:18:43.151Z,14.50
2022-10-12T22:21:16.078Z,14.60
2022-10-12T22:23:44.427Z,14.70
2022-10-12T22:26:14.670Z,14.70
2022-10-12T22:28:42.220Z,14.70
2022-10-12T22:31:11.998Z,14.80
2022-10-12T22:33:39.790Z,14.80
2022-10-12T22:36:08.569Z,14.80
2022-10-12T22:38:35.875Z,14.80
2022-10-12T22:41:35.517Z,14.80
2022-10-12T22:44:02.753Z,14.80
2022-10-12T22:46:29.906Z,14.80
2022-10-12T22:48:57.088Z,14.80
2022-10-12T22:51:33.252Z,14.80
2022-10-12T22:54:01.874Z,14.90
2022-10-12T22:56:31.477Z,14.90
2022-10-12T22:59:01.703Z,14.90
2022-10-12T23:01:29.606Z,15.00
2022-10-12T23:03:56.788Z,15.00
2022-10-12T23:06:24.965Z,15.00
2022-10-12T23:08:52.668Z,15.10
2022-10-12T23:11:23.819Z,15.10
2022-10-12T23:13:51.053Z,15.10
2022-10-12T23:16:21.170Z,15.10
2022-10-12T23:18:56.663Z,15.20
2022-10-12T23:21:26.988Z,15.20
2022-10-12T23:23:54.208Z,15.20
2022-10-12T23:26:24.409Z,15.30
2022-10-12T23:28:52.905Z,15.30
2022-10-12T23:31:22.883Z,15.30
2022-10-12T23:33:55.193Z,15.30
2022-10-12T23:36:22.562Z,15.30
2022-10-12T23:38:49.735Z,15.30
2022-10-12T23:41:17.092Z,15.40
2022-10-12T23:43:44.226Z,15.40
2022-10-12T23:46:12.624Z,15.40
2022-10-12T23:48:40.363Z,15.40
2022-10-12T23:51:11.135Z,15.40
2022-10-12T23:53:38.749Z,15.40
2022-10-12T23:56:06.927Z,15.40
2022-10-12T23:58:34.746Z,15.40
